createdAt,value
2022-09-10T00:00:55.341Z,5.18
2022-09-10T00:03:45.173Z,4.68
2022-09-10T00:06:35.251Z,5.40
2022-09-10T00:09:24.217Z,4.30
2022-09-10T00:12:12.410Z,7.45
2022-09-10T00:15:00.572Z,9.65
2022-09-10T00:17:48.764Z,9.30
2022-09-10T00:20:43.626Z,9.98
2022-09-10T00:23:31.936Z,11.40
2022-09-10T00:26:22.386Z,11.18
2022-09-10T00:29:12.800Z,12.93
2022-09-10T00:32:00.971Z,10.65
2022-09-10T00:34:49.279Z,7.55
2022-09-10T00:37:38.776Z,8.25
2022-09-10T00:40:26.935Z,10.68
2022-09-10T00:43:18.758Z,8.52
2022-09-10T00:46:07.202Z,9.27
2022-09-10T00:48:58.192Z,11.02
2022-09-10T00:54:38.807Z,12.27
2022-09-10T00:57:29.086Z,8.45
2022-09-10T01:00:17.860Z,9.70
2022-09-10T01:03:09.013Z,11.70
2022-09-10T01:05:58.197Z,11.05
2022-09-10T01:08:46.391Z,13.15
2022-09-10T01:11:45.973Z,9.82
2022-09-10T01:14:52.615Z,11.10
2022-09-10T01:17:52.713Z,8.60
2022-09-10T01:21:03.981Z,7.17
2022-09-10T01:24:34.622Z,7.93
2022-09-10T01:27:41.225Z,8.82
2022-09-10T01:30:36.031Z,7.82
2022-09-10T01:33:30.145Z,6.97
2022-09-10T01:36:22.374Z,5.90
2022-09-10T01:39:10.710Z,8.43
2022-09-10T01:41:58.852Z,8.02
2022-09-10T01:44:49.710Z,9.35
2022-09-10T01:47:56.500Z,6.63
2022-09-10T01:50:50.775Z,5.97
2022-09-10T01:53:55.992Z,6.00
2022-09-10T01:56:53.542Z,6.13
2022-09-10T01:59:51.881Z,9.43
2022-09-10T02:02:45.247Z,5.68
2022-09-10T02:05:37.350Z,10.15
2022-09-10T02:08:31.141Z,13.93
2022-09-10T02:11:19.797Z,7.72
2022-09-10T02:14:08.413Z,6.50
2022-09-10T02:17:00.153Z,8.10
2022-09-10T02:19:51.580Z,8.38
2022-09-10T02:22:41.609Z,7.03
2022-09-10T02:25:34.316Z,9.30
2022-09-10T02:28:22.826Z,8.63
2022-09-10T02:31:11.147Z,11.00
2022-09-10T02:34:03.109Z,9.23
2022-09-10T02:36:51.253Z,6.18
2022-09-10T02:39:40.156Z,7.63
2022-09-10T02:42:28.364Z,10.82
2022-09-10T02:45:17.115Z,12.65
2022-09-10T02:48:05.515Z,10.57
2022-09-10T02:50:55.399Z,9.00
2022-09-10T02:53:43.546Z,9.15
2022-09-10T02:56:32.426Z,10.32
2022-09-10T02:59:20.568Z,10.77
2022-09-10T03:02:09.745Z,12.27
2022-09-10T03:04:57.955Z,8.68
2022-09-10T03:07:47.954Z,8.52
2022-09-10T03:10:38.482Z,9.43
2022-09-10T03:13:28.006Z,12.95
2022-09-10T03:16:17.078Z,7.88
2022-09-10T03:19:05.233Z,10.70
2022-09-10T03:21:53.511Z,9.57
2022-09-10T03:24:43.136Z,11.50
2022-09-10T03:27:31.394Z,6.97
2022-09-10T03:30:21.184Z,9.18
2022-09-10T03:33:11.719Z,7.70
2022-09-10T03:36:00.480Z,8.73
2022-09-10T03:38:48.672Z,11.50
2022-09-10T03:41:38.227Z,8.98
2022-09-10T03:44:26.374Z,9.57
2022-09-10T03:47:14.543Z,10.40
2022-09-10T03:50:02.656Z,11.45
2022-09-10T03:52:50.806Z,8.30
2022-09-10T03:55:39.199Z,9.25
2022-09-10T03:58:28.822Z,10.02
2022-09-10T04:01:17.155Z,12.63
2022-09-10T04:04:05.437Z,9.73
2022-09-10T04:06:54.122Z,10.32
2022-09-10T04:09:42.529Z,11.65
2022-09-10T04:12:30.980Z,11.10
2022-09-10T04:15:20.602Z,10.77
2022-09-10T04:18:09.899Z,8.18
2022-09-10T04:20:58.102Z,12.82
2022-09-10T04:23:47.659Z,12.82
2022-09-10T04:26:35.778Z,11.55
2022-09-10T04:29:24.100Z,14.13
2022-09-10T04:32:13.537Z,9.57
2022-09-10T04:35:02.359Z,8.93
2022-09-10T04:37:50.461Z,15.15
2022-09-10T04:40:38.568Z,9.02
2022-09-10T04:43:27.145Z,9.80
2022-09-10T04:46:15.302Z,10.70
2022-09-10T04:49:04.855Z,14.32
2022-09-10T04:51:53.014Z,8.85
2022-09-10T04:54:41.688Z,8.52
2022-09-10T04:57:29.848Z,8.90
2022-09-10T05:00:18.453Z,10.40
2022-09-10T05:03:07.132Z,10.88
2022-09-10T05:05:56.669Z,10.80
2022-09-10T05:08:44.819Z,9.32
2022-09-10T05:11:32.963Z,7.15
2022-09-10T05:14:21.074Z,6.50
2022-09-10T05:17:09.259Z,9.75
2022-09-10T05:19:57.406Z,9.05
2022-09-10T05:22:46.886Z,9.32
2022-09-10T05:25:35.125Z,8.23
2022-09-10T05:28:23.303Z,9.70
2022-09-10T05:31:12.857Z,9.45
2022-09-10T05:34:01.745Z,8.45
2022-09-10T05:36:49.876Z,6.60
2022-09-10T05:39:39.341Z,9.05
2022-09-10T05:42:27.523Z,9.48
2022-09-10T05:45:15.911Z,7.40
2022-09-10T05:48:04.465Z,8.20
2022-09-10T05:50:52.603Z,9.77
2022-09-10T05:53:41.482Z,10.68
2022-09-10T05:56:31.664Z,11.88
2022-09-10T05:59:20.444Z,10.55
2022-09-10T06:02:11.240Z,8.35
2022-09-10T06:04:59.901Z,11.65
2022-09-10T06:07:48.037Z,8.23
2022-09-10T06:10:36.143Z,11.02
2022-09-10T06:13:26.001Z,8.48
2022-09-10T06:16:14.214Z,11.93
2022-09-10T06:19:02.952Z,9.70
2022-09-10T06:21:52.375Z,10.68
2022-09-10T06:24:40.493Z,11.20
2022-09-10T06:27:28.626Z,10.95
2022-09-10T06:30:20.700Z,9.18
2022-09-10T06:33:08.806Z,8.38
2022-09-10T06:35:58.374Z,10.77
2022-09-10T06:38:46.735Z,4.63
2022-09-10T06:41:35.238Z,5.53
2022-09-10T06:44:23.386Z,7.63
2022-09-10T06:50:21.993Z,5.65
2022-09-10T06:53:11.581Z,5.55
2022-09-10T06:56:01.333Z,5.20
2022-09-10T06:58:49.579Z,5.85
2022-09-10T07:01:38.319Z,4.35
2022-09-10T07:04:27.796Z,4.63
2022-09-10T07:07:16.040Z,4.68
2022-09-10T07:10:04.415Z,7.55
2022-09-10T07:12:52.562Z,5.55
2022-09-10T07:15:46.434Z,5.50
2022-09-10T07:18:35.000Z,2.85
2022-09-10T07:21:27.427Z,3.38
2022-09-10T07:24:15.645Z,6.00
2022-09-10T07:27:03.792Z,6.65
2022-09-10T07:29:52.165Z,3.42
2022-09-10T07:32:41.371Z,3.10
2022-09-10T07:35:29.585Z,3.00
2022-09-10T07:38:20.537Z,16.83
2022-09-10T07:41:11.316Z,3.78
2022-09-10T07:46:47.766Z,3.65
2022-09-10T07:49:35.903Z,3.35
2022-09-10T07:52:24.040Z,3.15
2022-09-10T07:55:14.261Z,3.13
2022-09-10T07:58:02.438Z,3.10
2022-09-10T08:00:50.624Z,6.10
2022-09-10T08:03:39.873Z,4.18
2022-09-10T08:06:28.041Z,2.90
2022-09-10T08:09:16.393Z,4.18
2022-09-10T08:12:07.648Z,2.28
2022-09-10T08:14:57.711Z,4.57
2022-09-10T08:17:45.837Z,2.88
2022-09-10T08:20:33.933Z,6.63
2022-09-10T08:23:22.753Z,2.40
2022-09-10T08:26:11.013Z,3.90
2022-09-10T08:29:02.731Z,5.88
2022-09-10T08:31:50.877Z,2.75
2022-09-10T08:34:39.036Z,4.15
2022-09-10T08:37:31.298Z,6.20
2022-09-10T08:40:19.485Z,2.63
2022-09-10T08:43:08.403Z,4.93
2022-09-10T08:46:00.617Z,3.08
2022-09-10T08:48:55.108Z,4.53
2022-09-10T08:51:47.898Z,4.82
2022-09-10T08:54:41.550Z,3.15
2022-09-10T08:57:34.520Z,3.80
2022-09-10T09:00:25.654Z,5.90
2022-09-10T09:03:21.356Z,5.50
2022-09-10T09:06:23.267Z,4.68
2022-09-10T09:09:15.877Z,4.72
2022-09-10T09:12:15.659Z,2.88
2022-09-10T09:15:14.535Z,6.00
2022-09-10T09:18:19.224Z,3.92
2022-09-10T09:21:14.151Z,2.20
2022-09-10T09:24:13.983Z,4.85
2022-09-10T09:27:09.890Z,4.18
2022-09-10T09:30:03.342Z,2.38
2022-09-10T09:32:51.673Z,4.68
2022-09-10T09:35:47.697Z,2.67
2022-09-10T09:38:41.273Z,2.78
2022-09-10T09:41:34.984Z,3.00
2022-09-10T09:44:27.815Z,3.55
2022-09-10T09:47:16.029Z,5.50
2022-09-10T09:50:04.438Z,4.60
2022-09-10T09:52:56.560Z,3.83
2022-09-10T09:55:48.095Z,4.55
2022-09-10T09:58:40.160Z,3.40
2022-09-10T10:01:28.974Z,2.92
2022-09-10T10:04:23.175Z,6.68
2022-09-10T10:07:12.884Z,3.25
2022-09-10T10:10:04.781Z,2.92
2022-09-10T10:12:55.250Z,1.83
2022-09-10T10:15:43.451Z,3.50
2022-09-10T10:18:32.708Z,2.97
2022-09-10T10:21:23.429Z,5.28
2022-09-10T10:27:24.149Z,2.33
2022-09-10T10:30:25.006Z,3.63
2022-09-10T10:33:19.249Z,8.23
2022-09-10T10:36:16.077Z,2.63
2022-09-10T10:39:12.786Z,4.47
2022-09-10T10:42:07.485Z,5.22
2022-09-10T10:45:08.192Z,2.17
2022-09-10T10:50:54.700Z,3.63
2022-09-10T10:53:57.948Z,4.68
2022-09-10T10:56:56.894Z,5.68
2022-09-10T10:59:54.048Z,2.95
2022-09-10T11:02:49.706Z,3.05
2022-09-10T11:05:39.538Z,2.30
2022-09-10T11:08:33.263Z,2.70
2022-09-10T11:11:26.207Z,2.60
2022-09-10T11:14:23.147Z,1.45
2022-09-10T11:17:16.769Z,2.47
2022-09-10T11:20:28.633Z,2.70
2022-09-10T11:23:27.765Z,9.30
2022-09-10T11:26:20.903Z,3.00
2022-09-10T11:29:25.367Z,3.67
2022-09-10T11:32:19.938Z,1.67
2022-09-10T11:35:21.509Z,1.58
2022-09-10T11:38:18.222Z,1.58
2022-09-10T11:41:11.964Z,3.10
2022-09-10T11:44:12.190Z,1.25
2022-09-10T11:47:16.971Z,1.98
2022-09-10T11:50:11.881Z,3.63
2022-09-10T11:53:01.406Z,2.03
2022-09-10T11:56:12.885Z,4.97
2022-09-10T11:59:11.355Z,3.05
2022-09-10T12:02:23.558Z,3.10
2022-09-10T12:05:23.605Z,1.98
2022-09-10T12:08:19.669Z,2.53
2022-09-10T12:11:20.191Z,4.32
2022-09-10T12:14:14.566Z,2.33
2022-09-10T12:17:08.700Z,2.35
2022-09-10T12:20:06.708Z,2.80
2022-09-10T12:22:57.380Z,2.53
2022-09-10T12:29:06.020Z,3.47
2022-09-10T12:32:16.901Z,1.63
2022-09-10T12:35:47.818Z,2.38
2022-09-10T12:38:55.174Z,2.65
2022-09-10T12:42:01.224Z,2.30
2022-09-10T12:44:49.632Z,2.03
2022-09-10T12:47:50.276Z,2.03
2022-09-10T12:50:46.251Z,1.90
2022-09-10T12:54:01.975Z,2.10
2022-09-10T12:57:22.633Z,1.50
2022-09-10T13:00:21.920Z,3.03
2022-09-10T13:03:15.371Z,1.92
2022-09-10T13:06:07.119Z,3.17
2022-09-10T13:08:55.776Z,3.15
2022-09-10T13:11:49.530Z,1.48
2022-09-10T13:14:53.806Z,3.50
2022-09-10T13:18:20.697Z,0.60
2022-09-10T13:21:49.055Z,3.25
2022-09-10T13:24:39.228Z,2.13
2022-09-10T13:27:39.846Z,1.98
2022-09-10T13:30:29.844Z,2.30
2022-09-10T13:33:22.608Z,4.38
2022-09-10T13:36:24.593Z,10.77
2022-09-10T13:39:31.931Z,2.08
2022-09-10T13:42:47.175Z,2.53
2022-09-10T13:45:42.033Z,1.00
2022-09-10T13:48:42.045Z,1.95
2022-09-10T13:51:36.298Z,2.33
2022-09-10T13:54:35.683Z,4.47
2022-09-10T13:57:28.387Z,2.08
2022-09-10T14:00:24.904Z,2.38
2022-09-10T14:03:17.348Z,1.98
2022-09-10T14:06:08.774Z,4.07
2022-09-10T14:09:00.660Z,4.57
2022-09-10T14:11:49.560Z,2.58
2022-09-10T14:14:41.450Z,2.88
2022-09-10T14:17:36.911Z,3.53
2022-09-10T14:20:27.437Z,0.85
2022-09-10T14:23:17.023Z,0.68
2022-09-10T14:26:13.370Z,1.67
2022-09-10T14:29:03.451Z,1.25
2022-09-10T14:31:51.907Z,1.52
2022-09-10T14:34:41.358Z,2.13
2022-09-10T14:37:36.885Z,0.85
2022-09-10T14:40:25.035Z,1.55
2022-09-10T14:43:16.590Z,1.35
2022-09-10T14:46:07.825Z,1.77
2022-09-10T14:49:11.507Z,1.17
2022-09-10T14:52:02.289Z,1.85
2022-09-10T14:54:51.218Z,0.98
2022-09-10T14:57:41.283Z,0.75
2022-09-10T15:00:30.061Z,0.70
2022-09-10T15:03:18.240Z,2.17
2022-09-10T15:06:06.655Z,1.20
2022-09-10T15:08:57.039Z,1.52
2022-09-10T15:11:53.533Z,3.10
2022-09-10T15:14:42.063Z,2.38
2022-09-10T15:17:30.223Z,1.10
2022-09-10T15:20:18.584Z,2.40
2022-09-10T15:23:06.942Z,1.02
2022-09-10T15:25:58.839Z,1.30
2022-09-10T15:28:47.023Z,0.90
2022-09-10T15:31:35.740Z,1.80
2022-09-10T15:34:23.925Z,1.75
2022-09-10T15:37:12.461Z,0.63
2022-09-10T15:40:01.215Z,0.32
2022-09-10T15:42:52.257Z,1.35
2022-09-10T15:45:40.658Z,0.20
2022-09-10T15:48:29.263Z,0.45
2022-09-10T15:51:21.410Z,0.85
2022-09-10T15:54:10.790Z,1.75
2022-09-10T15:56:59.206Z,0.47
2022-09-10T15:59:48.908Z,0.15
2022-09-10T16:02:37.597Z,0.30
2022-09-10T16:05:25.744Z,0.35
2022-09-10T16:08:13.880Z,0.05
2022-09-10T16:11:08.625Z,0.38
2022-09-10T16:14:02.143Z,0.20
2022-09-10T16:16:53.848Z,0.47
2022-09-10T16:19:41.991Z,0.30
2022-09-10T16:22:32.164Z,0.20
2022-09-10T16:25:20.323Z,0.30
2022-09-10T16:28:08.453Z,1.95
2022-09-10T16:30:59.174Z,0.43
2022-09-10T16:33:54.070Z,0.82
2022-09-10T16:36:43.548Z,5.30
2022-09-10T16:39:31.748Z,0.28
2022-09-10T16:42:19.994Z,1.02
2022-09-10T16:45:09.414Z,0.60
2022-09-10T16:48:03.967Z,0.70
2022-09-10T16:50:55.154Z,0.60
2022-09-10T16:53:44.714Z,0.73
2022-09-10T16:56:36.951Z,1.17
2022-09-10T16:59:25.790Z,0.20
2022-09-10T17:02:13.969Z,0.47
2022-09-10T17:05:02.318Z,0.95
2022-09-10T17:07:52.071Z,2.47
2022-09-10T17:10:40.619Z,0.20
2022-09-10T17:13:28.766Z,0.43
2022-09-10T17:16:23.299Z,0.57
2022-09-10T17:19:14.113Z,0.77
2022-09-10T17:22:02.281Z,0.88
2022-09-10T17:24:53.850Z,1.05
2022-09-10T17:27:42.140Z,1.90
2022-09-10T17:30:30.349Z,1.17
2022-09-10T17:33:18.510Z,1.80
2022-09-10T17:36:06.960Z,0.68
2022-09-10T17:38:56.275Z,1.52
2022-09-10T17:41:46.236Z,0.70
2022-09-10T17:44:34.390Z,1.23
2022-09-10T17:47:22.585Z,1.20
2022-09-10T17:50:11.126Z,1.08
2022-09-10T17:52:59.241Z,0.85
2022-09-10T17:55:47.540Z,5.22
2022-09-10T17:58:38.250Z,11.63
2022-09-10T18:04:15.786Z,4.03
2022-09-10T18:07:04.076Z,0.65
2022-09-10T18:09:52.223Z,3.08
2022-09-10T18:12:40.460Z,4.63
2022-09-10T18:15:30.880Z,0.38
2022-09-10T18:18:18.986Z,1.15
2022-09-10T18:21:15.128Z,1.85
2022-09-10T18:24:04.975Z,1.15
2022-09-10T18:26:54.755Z,1.50
2022-09-10T18:29:43.040Z,6.88
2022-09-10T18:32:32.503Z,1.88
2022-09-10T18:35:21.013Z,3.35
2022-09-10T18:38:09.282Z,2.58
2022-09-10T18:40:57.431Z,2.95
2022-09-10T18:43:45.956Z,1.55
2022-09-10T18:46:35.291Z,1.52
2022-09-10T18:49:25.903Z,0.90
2022-09-10T18:52:14.140Z,0.80
2022-09-10T18:55:02.258Z,1.02
2022-09-10T18:57:50.738Z,1.95
2022-09-10T19:00:39.878Z,1.92
2022-09-10T19:03:27.986Z,2.90
2022-09-10T19:06:19.757Z,3.25
2022-09-10T19:09:11.077Z,5.57
2022-09-10T19:12:00.487Z,4.05
2022-09-10T19:14:48.643Z,5.95
2022-09-10T19:17:36.830Z,8.77
2022-09-10T19:20:26.522Z,24.92
2022-09-10T19:23:19.658Z,18.75
2022-09-10T19:26:09.878Z,13.82
2022-09-10T19:28:59.117Z,8.90
2022-09-10T19:31:48.740Z,11.52
2022-09-10T19:34:37.108Z,10.52
2022-09-10T19:37:25.823Z,8.82
2022-09-10T19:40:15.578Z,10.88
2022-09-10T19:43:04.026Z,6.63
2022-09-10T19:45:56.004Z,7.15
2022-09-10T19:48:45.271Z,4.90
2022-09-10T19:51:36.404Z,3.13
2022-09-10T19:54:25.698Z,2.97
2022-09-10T19:57:16.053Z,1.52
2022-09-10T20:00:04.730Z,5.63
2022-09-10T20:02:53.916Z,1.52
2022-09-10T20:05:43.232Z,1.95
2022-09-10T20:08:33.919Z,2.72
2022-09-10T20:11:24.323Z,2.70
2022-09-10T20:14:15.014Z,2.75
2022-09-10T20:17:03.437Z,2.53
2022-09-10T20:19:51.800Z,3.33
2022-09-10T20:22:40.090Z,1.85
2022-09-10T20:25:30.847Z,2.95
2022-09-10T20:31:10.756Z,3.95
2022-09-10T20:34:00.579Z,4.30
2022-09-10T20:36:51.103Z,4.03
2022-09-10T20:39:42.187Z,5.78
2022-09-10T20:42:32.893Z,3.03
2022-09-10T20:45:21.383Z,2.45
2022-09-10T20:48:10.836Z,4.18
2022-09-10T20:51:01.002Z,6.25
2022-09-10T20:53:49.762Z,3.70
2022-09-10T20:56:37.909Z,4.43
2022-09-10T20:59:27.849Z,3.00
2022-09-10T21:02:16.196Z,4.85
2022-09-10T21:05:06.808Z,5.72
2022-09-10T21:07:55.898Z,2.63
2022-09-10T21:10:44.039Z,4.70
2022-09-10T21:13:34.216Z,3.55
2022-09-10T21:16:24.165Z,3.17
2022-09-10T21:19:13.805Z,2.43
2022-09-10T21:22:03.682Z,3.13
2022-09-10T21:24:51.795Z,2.40
2022-09-10T21:27:39.923Z,1.98
2022-09-10T21:30:29.161Z,2.45
2022-09-10T21:33:17.308Z,4.55
2022-09-10T21:36:07.343Z,1.50
2022-09-10T21:38:59.511Z,2.50
2022-09-10T21:41:49.423Z,2.70
2022-09-10T21:44:37.674Z,2.50
2022-09-10T21:47:26.236Z,4.05
2022-09-10T21:50:14.416Z,3.47
2022-09-10T21:53:02.933Z,3.65
2022-09-10T21:55:55.893Z,2.95
2022-09-10T21:58:45.353Z,6.63
2022-09-10T22:01:33.828Z,3.05
2022-09-10T22:04:23.325Z,3.75
2022-09-10T22:07:11.998Z,3.92
2022-09-10T22:10:00.196Z,4.28
2022-09-10T22:12:49.759Z,3.30
2022-09-10T22:15:39.757Z,2.28
2022-09-10T22:18:27.940Z,2.90
2022-09-10T22:21:16.534Z,2.47
2022-09-10T22:24:06.074Z,4.15
2022-09-10T22:26:54.563Z,4.10
2022-09-10T22:29:45.251Z,1.90
2022-09-10T22:32:33.903Z,2.80
2022-09-10T22:35:22.029Z,4.13
2022-09-10T22:38:10.639Z,5.38
2022-09-10T22:41:03.037Z,8.98
2022-09-10T22:43:51.329Z,3.20
2022-09-10T22:46:41.336Z,3.95
2022-09-10T22:49:29.497Z,3.47
2022-09-10T22:52:17.687Z,4.97
2022-09-10T22:55:06.914Z,3.22
2022-09-10T22:57:55.051Z,2.30
2022-09-10T23:00:43.147Z,4.20
2022-09-10T23:03:32.650Z,5.00
2022-09-10T23:06:22.348Z,3.60
2022-09-10T23:09:12.822Z,2.58
2022-09-10T23:12:01.275Z,2.17
2022-09-10T23:14:49.458Z,3.95
2022-09-10T23:17:38.507Z,2.75
2022-09-10T23:20:28.265Z,2.95
2022-09-10T23:23:16.412Z,3.20
2022-09-10T23:26:06.809Z,2.83
2022-09-10T23:28:55.609Z,3.13
2022-09-10T23:31:44.162Z,3.78
2022-09-10T23:34:32.322Z,2.75
2022-09-10T23:37:21.762Z,2.83
2022-09-10T23:40:11.887Z,4.72
2022-09-10T23:43:00.072Z,3.35
2022-09-10T23:45:48.204Z,4.20
2022-09-10T23:48:36.767Z,4.35
2022-09-10T23:51:25.155Z,4.88
2022-09-10T23:54:15.290Z,5.65
2022-09-10T23:57:03.744Z,3.65
2022-09-10T23:59:52.249Z,5.68
